Anchorage, AK (99514)

11:40 PM AKDT on August 31, 2014 (GMT -0800)
The Spurlocks at Airport Heights | Change Station
CLOSE
Current Station
Personal Weather Station
Location: Anchorage, AK
Elevation: 104 ft
Nearby Weather Stations

Elev 104 ft 61.21 °N, 149.82 °W | Updated 47 seconds ago

Clear
Clear
47.1 °F
Feels Like 47 °F
N
0.0
Wind Variable Wind from ENE
Gusts 0.0 mph

Today
High -- | Low -- °F
--% Chance of Precip.
Yesterday
High -- | Low -- °F
Precip. -- in
6:49 AM 9:08 PM
Waxing Crescent, 38% visible
Pressure 29.79 in
Visibility 10.0 miles
Clouds Clear
Windchill 47 °F
Dew Point 38 °F
Humidity 71%
Rainfall 0.00 in
Snow Depth 1 in , 2 in
UV 0 out of 12
Pollen Not available.
Air Quality Not available.
Flu Activity Not available.
METAR PAMR 010653Z 11003KT 10SM CLR 09/03 A2978 RMK AO2 SLP087 T00940033

More Conditions Fewer Conditions

Pressure 29.79 in
Visibility 10.0 miles
Clouds Clear
Windchill 47 °F
Dew Point 38 °F
Humidity 71%
Rainfall 0.00 in
Snow Depth 1 in , 2 in
UV 0 out of 12
Pollen Not available.
Air Quality Not available.
Flu Activity Not available.
METAR PAMR 010653Z 11003KT 10SM CLR 09/03 A2978 RMK AO2 SLP087 T00940033

More Conditions Fewer Conditions

10-Day Weather Forecast

Almanac

Astronomy

Aug. 31, 2014 Rise Set
Actual Time 6:49 AM AKDT 9:08 PM AKDT
Civil Twilight 6:01 AM AKDT 9:55 PM AKDT
Nautical Twilight 4:58 AM AKDT 10:57 PM AKDT
Astronomical Twilight 3:30 AM AKDT 12:22 AM AKDT
Moon 2:31 PM AKDT (8/31) 10:41 PM AKDT (8/31)
Length of Visible Light 15h 53m
Length of Day
14h 19m
Tomorrow will be 5m 39s shorter.
Waxing Crescent, 38% of the Moon is Illuminated
Sep 1
Waxing Crescent
Sep 2
First Quarter
Sep 8
Full
Sep 15
Last Quarter
Sep 24
New

Community

WunderPhotos

Upload Photos

1,749,154 photos uploaded!

Nearby

Snow Depth

Station Depth Elevation
Point Mackenzie 1 in 200 ft
Indian Pass 2 in 2300 ft
Turnagain Pass 1 in 1880 ft
Summit Creek 0 in 1400 ft
Grandview 22 in 1100 ft

Earthquake Activity

City Distance Mag. Time & Date
No recent earthquake activity has been reported nearby.
Minimum magnitude displayed is 2.5.

Coastal Water Temperatures

Place Temperature
No Stations Reporting

Nearby Weather Stations